RYR91EQ EGSS-LPMA
Flight info
| Callsign | RYR91EQ |
|---|---|
| Flight time | N/A |
| Altitude | 33000 |
| Route | NUGBO M183 SILVA Q41 SAM M195 MARUK/N0448F370 M195 LORKU DCT EBOMO DCT COQUE DCT KORUL DCT DEMOS DCT IBIDO DCT MARUM DCT PECKY DCT LIDRO |
| Aircraft | B38M/M-SADE3FGILRWY/SB1 |
Departure
| Time | 2026-05-07 12:09 |
|---|---|
| Airport | London Stansted Airport (EGSS) |
Arrival
| Time | N/A |
|---|---|
| Airport | Cristiano Ronaldo International Airport (LPMA) |
| Time | Latitude | Longitude | Altitude | Speed | Heading |
|---|---|---|---|---|---|
| 2026-05-07 11:37 | 51.89082 | 0.25293 | 356 ft | 0 kts | 203° |
| 2026-05-07 11:58 | 51.89098 | 0.25304 | 359 ft | 2 kts | 203° |
| 2026-05-07 11:58 | 51.89114 | 0.25323 | 361 ft | 4 kts | 255° |
| 2026-05-07 11:59 | 51.89108 | 0.25356 | 361 ft | 4 kts | 310° |
| 2026-05-07 11:59 | 51.89091 | 0.25387 | 356 ft | 3 kts | 313° |
| 2026-05-07 11:59 | 51.89089 | 0.25390 | 355 ft | 0 kts | 313° |
| 2026-05-07 12:02 | 51.89090 | 0.25388 | 355 ft | 1 kts | 313° |
| 2026-05-07 12:02 | 51.89106 | 0.25361 | 358 ft | 5 kts | 313° |
| 2026-05-07 12:03 | 51.89139 | 0.25301 | 354 ft | 9 kts | 303° |
| 2026-05-07 12:03 | 51.89128 | 0.25202 | 357 ft | 10 kts | 226° |
| 2026-05-07 12:03 | 51.89066 | 0.25113 | 351 ft | 14 kts | 221° |
| 2026-05-07 12:03 | 51.88987 | 0.24994 | 351 ft | 17 kts | 223° |
| 2026-05-07 12:04 | 51.88891 | 0.24849 | 359 ft | 21 kts | 223° |
| 2026-05-07 12:04 | 51.88778 | 0.24680 | 353 ft | 24 kts | 223° |
| 2026-05-07 12:04 | 51.88647 | 0.24483 | 355 ft | 27 kts | 223° |
| 2026-05-07 12:04 | 51.88500 | 0.24263 | 351 ft | 30 kts | 223° |
| 2026-05-07 12:05 | 51.88347 | 0.24034 | 353 ft | 28 kts | 223° |
| 2026-05-07 12:05 | 51.88214 | 0.23835 | 353 ft | 25 kts | 223° |
| 2026-05-07 12:05 | 51.88081 | 0.23637 | 351 ft | 26 kts | 223° |
| 2026-05-07 12:05 | 51.87943 | 0.23430 | 355 ft | 27 kts | 223° |
| 2026-05-07 12:06 | 51.87803 | 0.23217 | 351 ft | 27 kts | 223° |
| 2026-05-07 12:06 | 51.87736 | 0.23035 | 351 ft | 15 kts | 292° |
| 2026-05-07 12:06 | 51.87788 | 0.22906 | 356 ft | 14 kts | 263° |
| 2026-05-07 12:06 | 51.87732 | 0.22813 | 357 ft | 12 kts | 221° |
| 2026-05-07 12:07 | 51.87666 | 0.22717 | 351 ft | 14 kts | 222° |
| 2026-05-07 12:07 | 51.87591 | 0.22607 | 356 ft | 15 kts | 222° |
| 2026-05-07 12:07 | 51.87504 | 0.22470 | 346 ft | 20 kts | 224° |
| 2026-05-07 12:07 | 51.87403 | 0.22290 | 337 ft | 23 kts | 251° |
| 2026-05-07 12:08 | 51.87473 | 0.22077 | 337 ft | 19 kts | 314° |
| 2026-05-07 12:08 | 51.87564 | 0.22076 | 335 ft | 15 kts | 43° |
| 2026-05-07 12:08 | 51.87662 | 0.22221 | 339 ft | 31 kts | 42° |
| 2026-05-07 12:08 | 51.88019 | 0.22760 | 339 ft | 108 kts | 43° |
| 2026-05-07 12:09 | 51.88736 | 0.23822 | 362 ft | 167 kts | 45° |
| 2026-05-07 12:09 | 51.89609 | 0.25136 | 1078 ft | 162 kts | 46° |
| 2026-05-07 12:09 | 51.90431 | 0.26401 | 1937 ft | 171 kts | 45° |
| 2026-05-07 12:09 | 51.91298 | 0.27711 | 2626 ft | 172 kts | 46° |
| 2026-05-07 12:10 | 51.92285 | 0.28989 | 3020 ft | 193 kts | 26° |
| 2026-05-07 12:10 | 51.93647 | 0.29574 | 3412 ft | 217 kts | 6° |
| 2026-05-07 12:10 | 51.95219 | 0.29122 | 3749 ft | 244 kts | 332° |
| 2026-05-07 12:10 | 51.96497 | 0.27217 | 4297 ft | 260 kts | 298° |
| 2026-05-07 12:11 | 51.97024 | 0.24376 | 4705 ft | 268 kts | 276° |
| 2026-05-07 12:11 | 51.97323 | 0.21431 | 4812 ft | 269 kts | 278° |
| 2026-05-07 12:11 | 51.97644 | 0.18442 | 4936 ft | 269 kts | 278° |
| 2026-05-07 12:11 | 51.97973 | 0.15409 | 4992 ft | 269 kts | 278° |
| 2026-05-07 12:12 | 51.98294 | 0.12460 | 4994 ft | 269 kts | 278° |
| 2026-05-07 12:12 | 51.98620 | 0.09472 | 5004 ft | 270 kts | 278° |
| 2026-05-07 12:12 | 51.98888 | 0.06467 | 4981 ft | 267 kts | 267° |
| 2026-05-07 12:12 | 51.98605 | 0.03526 | 5020 ft | 265 kts | 256° |
| 2026-05-07 12:13 | 51.98238 | 0.00582 | 4995 ft | 266 kts | 256° |
| 2026-05-07 12:13 | 51.97869 | -0.02356 | 4996 ft | 266 kts | 257° |
| 2026-05-07 12:13 | 51.97494 | -0.05301 | 4997 ft | 267 kts | 257° |
| 2026-05-07 12:13 | 51.97111 | -0.08263 | 5146 ft | 270 kts | 257° |
| 2026-05-07 12:14 | 51.96728 | -0.11230 | 6104 ft | 266 kts | 256° |
| 2026-05-07 12:14 | 51.96345 | -0.14178 | 6985 ft | 270 kts | 257° |
| 2026-05-07 12:14 | 51.95952 | -0.17192 | 7781 ft | 275 kts | 257° |
| 2026-05-07 12:14 | 51.95554 | -0.20236 | 8630 ft | 278 kts | 256° |
| 2026-05-07 12:15 | 51.95150 | -0.23329 | 9439 ft | 282 kts | 256° |
| 2026-05-07 12:15 | 51.94740 | -0.26457 | 10246 ft | 286 kts | 257° |
| 2026-05-07 12:15 | 51.94313 | -0.29698 | 10690 ft | 303 kts | 257° |
| 2026-05-07 12:15 | 51.93860 | -0.33136 | 11080 ft | 320 kts | 257° |
| 2026-05-07 12:16 | 51.93386 | -0.36724 | 11653 ft | 328 kts | 257° |
| 2026-05-07 12:16 | 51.92909 | -0.40339 | 12449 ft | 330 kts | 257° |
| 2026-05-07 12:16 | 51.92423 | -0.43999 | 13187 ft | 334 kts | 256° |
| 2026-05-07 12:16 | 51.91932 | -0.47693 | 13959 ft | 337 kts | 256° |
| 2026-05-07 12:17 | 51.91434 | -0.51426 | 14616 ft | 341 kts | 256° |
| 2026-05-07 12:17 | 51.90936 | -0.55141 | 15297 ft | 344 kts | 257° |
| 2026-05-07 12:17 | 51.90421 | -0.58984 | 15996 ft | 346 kts | 257° |
| 2026-05-07 12:17 | 51.89906 | -0.62811 | 16676 ft | 349 kts | 256° |
| 2026-05-07 12:18 | 51.89387 | -0.66663 | 17338 ft | 352 kts | 256° |
| 2026-05-07 12:18 | 51.88868 | -0.70499 | 17972 ft | 355 kts | 256° |
| 2026-05-07 12:18 | 51.88337 | -0.74417 | 18579 ft | 358 kts | 256° |
| 2026-05-07 12:18 | 51.87800 | -0.78366 | 19117 ft | 361 kts | 256° |
| 2026-05-07 12:19 | 51.87258 | -0.82344 | 19646 ft | 363 kts | 256° |
| 2026-05-07 12:19 | 51.86711 | -0.86347 | 20171 ft | 366 kts | 256° |
| 2026-05-07 12:19 | 51.86159 | -0.90384 | 20681 ft | 369 kts | 256° |
| 2026-05-07 12:19 | 51.85406 | -0.94357 | 21165 ft | 370 kts | 243° |
| 2026-05-07 12:20 | 51.83932 | -0.97744 | 21675 ft | 371 kts | 224° |
| 2026-05-07 12:20 | 51.81849 | -1.00197 | 22172 ft | 373 kts | 206° |
| 2026-05-07 12:20 | 51.79385 | -1.01563 | 22667 ft | 377 kts | 192° |
| 2026-05-07 12:20 | 51.76799 | -1.02396 | 23164 ft | 381 kts | 192° |
| 2026-05-07 12:21 | 51.74183 | -1.03167 | 23654 ft | 384 kts | 191° |
| 2026-05-07 12:21 | 51.71543 | -1.03898 | 24073 ft | 386 kts | 191° |
| 2026-05-07 12:21 | 51.68880 | -1.04610 | 24513 ft | 389 kts | 190° |
| 2026-05-07 12:21 | 51.66198 | -1.05309 | 24925 ft | 392 kts | 190° |
| 2026-05-07 12:22 | 51.63503 | -1.06003 | 25361 ft | 394 kts | 190° |
| 2026-05-07 12:22 | 51.60811 | -1.06873 | 25756 ft | 396 kts | 197° |
| 2026-05-07 12:22 | 51.58146 | -1.08059 | 26174 ft | 398 kts | 195° |
| 2026-05-07 12:22 | 51.55457 | -1.09208 | 26572 ft | 401 kts | 195° |
| 2026-05-07 12:23 | 51.52749 | -1.10342 | 26990 ft | 403 kts | 195° |
| 2026-05-07 12:23 | 51.50029 | -1.11468 | 27372 ft | 406 kts | 195° |
| 2026-05-07 12:23 | 51.47289 | -1.12621 | 27751 ft | 408 kts | 196° |
| 2026-05-07 12:23 | 51.44541 | -1.13802 | 28136 ft | 410 kts | 195° |
| 2026-05-07 12:24 | 51.41775 | -1.14984 | 28506 ft | 412 kts | 195° |
| 2026-05-07 12:24 | 51.38993 | -1.16170 | 28870 ft | 415 kts | 195° |
| 2026-05-07 12:24 | 51.36197 | -1.17361 | 29225 ft | 417 kts | 195° |
| 2026-05-07 12:24 | 51.33384 | -1.18557 | 29589 ft | 420 kts | 195° |
| 2026-05-07 12:25 | 51.30556 | -1.19758 | 29936 ft | 422 kts | 196° |
| 2026-05-07 12:25 | 51.27713 | -1.20963 | 30262 ft | 423 kts | 196° |
| 2026-05-07 12:25 | 51.24857 | -1.22173 | 30544 ft | 426 kts | 196° |
| 2026-05-07 12:25 | 51.21992 | -1.23384 | 30831 ft | 427 kts | 196° |
| 2026-05-07 12:26 | 51.19108 | -1.24603 | 31109 ft | 429 kts | 196° |
| 2026-05-07 12:26 | 51.16217 | -1.25822 | 31386 ft | 431 kts | 196° |
| 2026-05-07 12:26 | 51.13307 | -1.27048 | 31658 ft | 433 kts | 196° |
| 2026-05-07 12:26 | 51.10390 | -1.28276 | 31948 ft | 435 kts | 196° |
| 2026-05-07 12:27 | 51.07457 | -1.29508 | 32219 ft | 437 kts | 196° |
| 2026-05-07 12:27 | 51.04514 | -1.30743 | 32491 ft | 439 kts | 196° |
| 2026-05-07 12:27 | 51.01557 | -1.31983 | 32785 ft | 440 kts | 196° |
| 2026-05-07 12:27 | 50.98600 | -1.33220 | 33158 ft | 439 kts | 196° |
| 2026-05-07 12:28 | 50.95701 | -1.34687 | 33492 ft | 436 kts | 207° |
| 2026-05-07 12:28 | 50.93124 | -1.37166 | 33889 ft | 433 kts | 214° |
| 2026-05-07 12:28 | 50.90586 | -1.39742 | 34145 ft | 434 kts | 213° |
| 2026-05-07 12:28 | 50.88048 | -1.42334 | 34412 ft | 434 kts | 214° |
| 2026-05-07 12:29 | 50.85520 | -1.44941 | 34669 ft | 434 kts | 214° |
| 2026-05-07 12:29 | 50.83001 | -1.47550 | 34977 ft | 432 kts | 214° |
| 2026-05-07 12:29 | 50.80485 | -1.50158 | 35209 ft | 433 kts | 214° |
| 2026-05-07 12:29 | 50.77964 | -1.52769 | 35448 ft | 433 kts | 214° |
| 2026-05-07 12:30 | 50.75440 | -1.55380 | 35683 ft | 434 kts | 214° |
| 2026-05-07 12:30 | 50.72914 | -1.57989 | 35916 ft | 434 kts | 214° |
| 2026-05-07 12:30 | 50.70387 | -1.60598 | 36141 ft | 434 kts | 214° |
| 2026-05-07 12:30 | 50.67889 | -1.63172 | 36369 ft | 435 kts | 214° |
| 2026-05-07 12:31 | 50.65358 | -1.65776 | 36576 ft | 435 kts | 213° |
| 2026-05-07 12:31 | 50.62823 | -1.68382 | 36773 ft | 435 kts | 214° |
| 2026-05-07 12:31 | 50.60290 | -1.70982 | 37011 ft | 435 kts | 213° |
| 2026-05-07 12:32 | 50.55214 | -1.76183 | 37058 ft | 434 kts | 213° |
| 2026-05-07 12:32 | 50.50156 | -1.81352 | 37070 ft | 434 kts | 213° |
| 2026-05-07 12:33 | 50.42565 | -1.89082 | 37062 ft | 434 kts | 213° |
| 2026-05-07 12:33 | 50.37500 | -1.94224 | 37061 ft | 433 kts | 213° |
| 2026-05-07 12:34 | 50.32439 | -1.99349 | 37057 ft | 433 kts | 213° |
| 2026-05-07 12:34 | 50.27374 | -2.04465 | 37056 ft | 433 kts | 213° |
| 2026-05-07 12:35 | 50.22280 | -2.09498 | 37059 ft | 433 kts | 212° |
| 2026-05-07 12:35 | 50.17168 | -2.14483 | 37043 ft | 433 kts | 212° |
| 2026-05-07 12:36 | 50.12052 | -2.19465 | 37060 ft | 433 kts | 212° |
| 2026-05-07 12:36 | 50.06940 | -2.24431 | 37053 ft | 433 kts | 212° |
| 2026-05-07 12:37 | 50.01821 | -2.29391 | 37063 ft | 433 kts | 212° |
| 2026-05-07 12:37 | 49.96708 | -2.34333 | 37050 ft | 433 kts | 212° |
| 2026-05-07 12:38 | 49.91595 | -2.39264 | 37046 ft | 433 kts | 212° |
| 2026-05-07 12:38 | 49.86481 | -2.44184 | 37059 ft | 433 kts | 212° |
| 2026-05-07 12:39 | 49.81366 | -2.49093 | 37044 ft | 432 kts | 212° |
| 2026-05-07 12:39 | 49.76249 | -2.53991 | 37049 ft | 433 kts | 212° |
| 2026-05-07 12:40 | 49.71129 | -2.58880 | 37034 ft | 433 kts | 212° |
| 2026-05-07 12:40 | 49.66004 | -2.63761 | 37043 ft | 433 kts | 212° |
| 2026-05-07 12:41 | 49.60876 | -2.68634 | 37053 ft | 433 kts | 212° |
| 2026-05-07 12:41 | 49.55783 | -2.73460 | 37033 ft | 432 kts | 212° |
| 2026-05-07 12:42 | 49.50656 | -2.78307 | 37044 ft | 433 kts | 212° |
| 2026-05-07 12:42 | 49.45525 | -2.83146 | 37037 ft | 432 kts | 212° |
| 2026-05-07 12:43 | 49.40401 | -2.87966 | 37030 ft | 432 kts | 212° |
| 2026-05-07 12:43 | 49.35276 | -2.92775 | 37030 ft | 432 kts | 212° |
| 2026-05-07 12:44 | 49.30144 | -2.97578 | 37026 ft | 432 kts | 212° |
| 2026-05-07 12:44 | 49.25014 | -3.02369 | 37016 ft | 432 kts | 212° |
| 2026-05-07 12:45 | 49.19885 | -3.07146 | 37021 ft | 431 kts | 212° |
| 2026-05-07 12:45 | 49.14756 | -3.11911 | 37030 ft | 431 kts | 211° |
| 2026-05-07 12:46 | 49.09627 | -3.16666 | 37019 ft | 431 kts | 211° |
| 2026-05-07 12:46 | 49.04492 | -3.21414 | 37012 ft | 431 kts | 211° |
| 2026-05-07 12:47 | 48.99362 | -3.26145 | 37001 ft | 431 kts | 211° |
| 2026-05-07 12:47 | 48.94230 | -3.30867 | 37009 ft | 431 kts | 211° |
| 2026-05-07 12:48 | 48.89101 | -3.35575 | 37003 ft | 430 kts | 211° |
| 2026-05-07 12:48 | 48.84002 | -3.40243 | 36995 ft | 431 kts | 211° |
| 2026-05-07 12:49 | 48.78867 | -3.44934 | 36990 ft | 431 kts | 211° |
| 2026-05-07 12:49 | 48.73734 | -3.49611 | 37003 ft | 431 kts | 211° |
| 2026-05-07 12:50 | 48.68598 | -3.54280 | 36989 ft | 430 kts | 211° |
| 2026-05-07 12:50 | 48.63462 | -3.58938 | 36989 ft | 430 kts | 211° |
| 2026-05-07 12:51 | 48.59159 | -3.62832 | 36974 ft | 430 kts | 211° |
| 2026-05-07 12:51 | 48.54058 | -3.67438 | 36987 ft | 430 kts | 211° |
| 2026-05-07 12:52 | 48.48921 | -3.72064 | 36981 ft | 430 kts | 211° |
| 2026-05-07 12:52 | 48.43786 | -3.76679 | 36979 ft | 430 kts | 211° |
| 2026-05-07 12:53 | 48.38648 | -3.81285 | 36982 ft | 430 kts | 211° |
| 2026-05-07 12:53 | 48.33508 | -3.85881 | 36982 ft | 430 kts | 211° |